sensor_id;sensor_type;location;lat;lon;timestamp;temperature;humidity
13616;DHT22;6879;51.368;6.782;2023-03-23T00:01:18;12.40;99.90
13616;DHT22;6879;51.368;6.782;2023-03-23T00:03:48;12.50;99.90
13616;DHT22;6879;51.368;6.782;2023-03-23T00:06:17;12.50;99.90
13616;DHT22;6879;51.368;6.782;2023-03-23T00:08:47;12.60;99.90
13616;DHT22;6879;51.368;6.782;2023-03-23T00:11:16;12.60;99.90
13616;DHT22;6879;51.368;6.782;2023-03-23T00:13:50;12.60;99.90
13616;DHT22;6879;51.368;6.782;2023-03-23T00:16:18;12.50;99.90
13616;DHT22;6879;51.368;6.782;2023-03-23T00:18:55;12.50;99.90
13616;DHT22;6879;51.368;6.782;2023-03-23T00:21:26;12.60;99.90
13616;DHT22;6879;51.368;6.782;2023-03-23T00:24:02;12.60;99.90
13616;DHT22;6879;51.368;6.782;2023-03-23T00:26:32;12.60;99.90
13616;DHT22;6879;51.368;6.782;2023-03-23T00:29:03;12.60;99.90
13616;DHT22;6879;51.368;6.782;2023-03-23T00:31:31;12.60;99.90
13616;DHT22;6879;51.368;6.782;2023-03-23T00:34:04;12.60;99.90
13616;DHT22;6879;51.368;6.782;2023-03-23T00:36:33;12.60;99.90
13616;DHT22;6879;51.368;6.782;2023-03-23T00:39:02;12.60;99.90
13616;DHT22;6879;51.368;6.782;2023-03-23T00:41:31;12.70;99.90
13616;DHT22;6879;51.368;6.782;2023-03-23T00:44:04;12.60;99.90
13616;DHT22;6879;51.368;6.782;2023-03-23T00:46:34;12.50;99.90
13616;DHT22;6879;51.368;6.782;2023-03-23T00:49:12;12.60;99.90
13616;DHT22;6879;51.368;6.782;2023-03-23T00:51:40;12.60;99.90
13616;DHT22;6879;51.368;6.782;2023-03-23T00:54:12;12.70;99.90
13616;DHT22;6879;51.368;6.782;2023-03-23T00:56:40;12.70;99.90
13616;DHT22;6879;51.368;6.782;2023-03-23T00:59:09;12.80;99.90
13616;DHT22;6879;51.368;6.782;2023-03-23T01:01:37;12.80;99.90
13616;DHT22;6879;51.368;6.782;2023-03-23T01:04:08;12.80;99.90
13616;DHT22;6879;51.368;6.782;2023-03-23T01:06:39;12.80;99.90
13616;DHT22;6879;51.368;6.782;2023-03-23T01:09:10;12.80;99.90
13616;DHT22;6879;51.368;6.782;2023-03-23T01:11:40;12.80;99.90
13616;DHT22;6879;51.368;6.782;2023-03-23T01:14:11;12.90;99.90
13616;DHT22;6879;51.368;6.782;2023-03-23T01:16:41;12.90;99.90
13616;DHT22;6879;51.368;6.782;2023-03-23T01:19:09;12.90;99.90
13616;DHT22;6879;51.368;6.782;2023-03-23T01:21:37;13.00;99.90
13616;DHT22;6879;51.368;6.782;2023-03-23T01:24:07;13.00;99.90
13616;DHT22;6879;51.368;6.782;2023-03-23T01:26:35;13.00;99.90
13616;DHT22;6879;51.368;6.782;2023-03-23T01:29:04;13.00;99.90
13616;DHT22;6879;51.368;6.782;2023-03-23T01:31:34;13.00;99.90
13616;DHT22;6879;51.368;6.782;2023-03-23T01:34:04;13.00;99.90
13616;DHT22;6879;51.368;6.782;2023-03-23T01:36:34;13.00;99.90
13616;DHT22;6879;51.368;6.782;2023-03-23T01:39:07;13.00;99.90
13616;DHT22;6879;51.368;6.782;2023-03-23T01:41:36;12.90;99.90
13616;DHT22;6879;51.368;6.782;2023-03-23T01:47:16;12.70;99.90
13616;DHT22;6879;51.368;6.782;2023-03-23T01:49:47;12.80;99.90
13616;DHT22;6879;51.368;6.782;2023-03-23T01:52:20;12.80;99.90
13616;DHT22;6879;51.368;6.782;2023-03-23T01:54:56;12.90;99.90
13616;DHT22;6879;51.368;6.782;2023-03-23T01:57:26;12.90;99.90
13616;DHT22;6879;51.368;6.782;2023-03-23T01:59:59;12.90;99.90
13616;DHT22;6879;51.368;6.782;2023-03-23T02:02:51;12.90;99.90
13616;DHT22;6879;51.368;6.782;2023-03-23T02:05:27;12.90;99.90
13616;DHT22;6879;51.368;6.782;2023-03-23T02:08:08;12.90;99.90
13616;DHT22;6879;51.368;6.782;2023-03-23T02:10:37;12.90;99.90
13616;DHT22;6879;51.368;6.782;2023-03-23T02:13:07;12.90;99.90
13616;DHT22;6879;51.368;6.782;2023-03-23T02:15:56;12.80;99.90
13616;DHT22;6879;51.368;6.782;2023-03-23T02:18:40;12.70;99.90
13616;DHT22;6879;51.368;6.782;2023-03-23T02:27:28;12.10;99.90
13616;DHT22;6879;51.368;6.782;2023-03-23T02:30:27;12.10;99.90
13616;DHT22;6879;51.368;6.782;2023-03-23T02:33:24;12.10;99.90
13616;DHT22;6879;51.368;6.782;2023-03-23T02:36:00;12.10;99.90
13616;DHT22;6879;51.368;6.782;2023-03-23T02:38:32;12.10;99.90
13616;DHT22;6879;51.368;6.782;2023-03-23T02:41:05;12.10;99.90
13616;DHT22;6879;51.368;6.782;2023-03-23T02:43:39;12.00;99.90
13616;DHT22;6879;51.368;6.782;2023-03-23T02:46:15;12.00;99.90
13616;DHT22;6879;51.368;6.782;2023-03-23T02:48:57;12.00;99.90
13616;DHT22;6879;51.368;6.782;2023-03-23T02:51:29;11.90;99.90
13616;DHT22;6879;51.368;6.782;2023-03-23T02:53:58;12.00;99.90
13616;DHT22;6879;51.368;6.782;2023-03-23T02:56:27;12.00;99.90
13616;DHT22;6879;51.368;6.782;2023-03-23T02:58:57;12.10;99.90
13616;DHT22;6879;51.368;6.782;2023-03-23T03:01:55;12.10;99.90
13616;DHT22;6879;51.368;6.782;2023-03-23T03:04:29;12.10;99.90
13616;DHT22;6879;51.368;6.782;2023-03-23T03:07:28;12.20;99.90
13616;DHT22;6879;51.368;6.782;2023-03-23T03:10:04;12.20;99.90
13616;DHT22;6879;51.368;6.782;2023-03-23T03:12:39;12.20;99.90
13616;DHT22;6879;51.368;6.782;2023-03-23T03:15:16;12.20;99.90
13616;DHT22;6879;51.368;6.782;2023-03-23T03:17:51;12.20;99.90
13616;DHT22;6879;51.368;6.782;2023-03-23T03:20:24;12.30;99.90
13616;DHT22;6879;51.368;6.782;2023-03-23T03:22:53;12.30;99.90
13616;DHT22;6879;51.368;6.782;2023-03-23T03:25:21;12.40;99.90
13616;DHT22;6879;51.368;6.782;2023-03-23T03:27:51;12.40;99.90
13616;DHT22;6879;51.368;6.782;2023-03-23T03:30:30;12.40;99.90
13616;DHT22;6879;51.368;6.782;2023-03-23T03:32:59;12.50;99.90
13616;DHT22;6879;51.368;6.782;2023-03-23T03:35:35;12.50;99.90
13616;DHT22;6879;51.368;6.782;2023-03-23T03:38:07;12.50;99.90
13616;DHT22;6879;51.368;6.782;2023-03-23T03:40:35;12.50;99.90
13616;DHT22;6879;51.368;6.782;2023-03-23T03:43:02;12.50;99.90
13616;DHT22;6879;51.368;6.782;2023-03-23T03:45:30;12.50;99.90
13616;DHT22;6879;51.368;6.782;2023-03-23T03:47:57;12.60;99.90
13616;DHT22;6879;51.368;6.782;2023-03-23T03:50:26;12.60;99.90
13616;DHT22;6879;51.368;6.782;2023-03-23T03:52:55;12.60;99.90
13616;DHT22;6879;51.368;6.782;2023-03-23T03:55:23;12.60;99.90
13616;DHT22;6879;51.368;6.782;2023-03-23T03:57:55;12.60;99.90
13616;DHT22;6879;51.368;6.782;2023-03-23T04:00:43;12.60;99.90
13616;DHT22;6879;51.368;6.782;2023-03-23T04:03:17;12.60;99.90
13616;DHT22;6879;51.368;6.782;2023-03-23T04:06:00;12.60;99.90
13616;DHT22;6879;51.368;6.782;2023-03-23T04:08:30;12.70;99.90
13616;DHT22;6879;51.368;6.782;2023-03-23T04:10:58;12.70;99.90
13616;DHT22;6879;51.368;6.782;2023-03-23T04:13:29;12.70;99.90
13616;DHT22;6879;51.368;6.782;2023-03-23T04:16:08;12.70;99.90
13616;DHT22;6879;51.368;6.782;2023-03-23T04:18:38;12.70;99.90
13616;DHT22;6879;51.368;6.782;2023-03-23T04:21:09;12.70;99.90
13616;DHT22;6879;51.368;6.782;2023-03-23T04:23:38;12.70;99.90
13616;DHT22;6879;51.368;6.782;2023-03-23T04:26:07;12.80;99.90
13616;DHT22;6879;51.368;6.782;2023-03-23T04:28:45;12.80;99.90
13616;DHT22;6879;51.368;6.782;2023-03-23T04:31:35;12.80;99.90
13616;DHT22;6879;51.368;6.782;2023-03-23T04:34:14;12.80;99.90
13616;DHT22;6879;51.368;6.782;2023-03-23T04:36:46;12.80;99.90
13616;DHT22;6879;51.368;6.782;2023-03-23T04:39:19;12.80;99.90
13616;DHT22;6879;51.368;6.782;2023-03-23T04:41:47;12.90;99.90
13616;DHT22;6879;51.368;6.782;2023-03-23T04:44:23;12.90;99.90
13616;DHT22;6879;51.368;6.782;2023-03-23T04:47:04;12.90;99.90
13616;DHT22;6879;51.368;6.782;2023-03-23T04:49:40;12.90;99.90
13616;DHT22;6879;51.368;6.782;2023-03-23T04:52:16;13.00;99.90
13616;DHT22;6879;51.368;6.782;2023-03-23T04:54:52;13.00;99.90
13616;DHT22;6879;51.368;6.782;2023-03-23T04:57:22;13.00;99.90
13616;DHT22;6879;51.368;6.782;2023-03-23T05:00:10;13.00;99.90
13616;DHT22;6879;51.368;6.782;2023-03-23T05:02:45;13.00;99.90
13616;DHT22;6879;51.368;6.782;2023-03-23T05:05:19;13.00;99.90
13616;DHT22;6879;51.368;6.782;2023-03-23T05:07:48;13.00;99.90
13616;DHT22;6879;51.368;6.782;2023-03-23T05:10:21;13.00;99.90
13616;DHT22;6879;51.368;6.782;2023-03-23T05:12:50;13.00;99.90
13616;DHT22;6879;51.368;6.782;2023-03-23T05:15:19;13.10;99.90
13616;DHT22;6879;51.368;6.782;2023-03-23T05:17:47;13.00;99.90
13616;DHT22;6879;51.368;6.782;2023-03-23T05:20:19;13.00;99.90
13616;DHT22;6879;51.368;6.782;2023-03-23T05:22:50;13.00;99.90
13616;DHT22;6879;51.368;6.782;2023-03-23T05:25:25;13.00;99.90
13616;DHT22;6879;51.368;6.782;2023-03-23T05:27:59;13.00;99.90
13616;DHT22;6879;51.368;6.782;2023-03-23T05:30:46;13.10;99.90
13616;DHT22;6879;51.368;6.782;2023-03-23T05:33:15;13.10;99.90
13616;DHT22;6879;51.368;6.782;2023-03-23T05:35:57;13.10;99.90
13616;DHT22;6879;51.368;6.782;2023-03-23T05:38:33;13.10;99.90
13616;DHT22;6879;51.368;6.782;2023-03-23T05:41:08;13.10;99.90
13616;DHT22;6879;51.368;6.782;2023-03-23T05:43:40;13.10;99.90
13616;DHT22;6879;51.368;6.782;2023-03-23T05:46:21;13.10;99.90
13616;DHT22;6879;51.368;6.782;2023-03-23T05:48:49;13.00;99.90
13616;DHT22;6879;51.368;6.782;2023-03-23T05:51:20;13.00;99.90
13616;DHT22;6879;51.368;6.782;2023-03-23T05:53:49;13.00;99.90
13616;DHT22;6879;51.368;6.782;2023-03-23T05:56:18;13.00;99.90
13616;DHT22;6879;51.368;6.782;2023-03-23T05:59:01;13.00;99.90
13616;DHT22;6879;51.368;6.782;2023-03-23T06:01:32;13.00;99.90
13616;DHT22;6879;51.368;6.782;2023-03-23T06:03:59;13.00;99.90
13616;DHT22;6879;51.368;6.782;2023-03-23T06:06:43;13.00;99.90
13616;DHT22;6879;51.368;6.782;2023-03-23T06:09:11;13.00;99.90
13616;DHT22;6879;51.368;6.782;2023-03-23T06:11:59;13.10;99.90
13616;DHT22;6879;51.368;6.782;2023-03-23T06:14:43;13.00;99.90
13616;DHT22;6879;51.368;6.782;2023-03-23T06:17:16;13.00;99.90
13616;DHT22;6879;51.368;6.782;2023-03-23T06:19:45;13.00;99.90
13616;DHT22;6879;51.368;6.782;2023-03-23T06:22:16;13.00;99.90
13616;DHT22;6879;51.368;6.782;2023-03-23T06:25:03;13.10;99.90
13616;DHT22;6879;51.368;6.782;2023-03-23T06:27:39;13.10;99.90
13616;DHT22;6879;51.368;6.782;2023-03-23T06:30:08;13.10;99.90
13616;DHT22;6879;51.368;6.782;2023-03-23T06:32:38;13.20;99.90
13616;DHT22;6879;51.368;6.782;2023-03-23T06:35:10;13.20;99.90
13616;DHT22;6879;51.368;6.782;2023-03-23T06:38:01;13.20;99.90
13616;DHT22;6879;51.368;6.782;2023-03-23T06:40:45;13.20;99.90
13616;DHT22;6879;51.368;6.782;2023-03-23T06:43:16;13.20;99.90
13616;DHT22;6879;51.368;6.782;2023-03-23T06:45:50;13.20;99.90
13616;DHT22;6879;51.368;6.782;2023-03-23T06:48:29;13.30;99.90
13616;DHT22;6879;51.368;6.782;2023-03-23T06:50:58;13.30;99.90
13616;DHT22;6879;51.368;6.782;2023-03-23T06:53:28;13.30;99.90
13616;DHT22;6879;51.368;6.782;2023-03-23T06:55:57;13.30;99.90
13616;DHT22;6879;51.368;6.782;2023-03-23T06:58:27;13.30;99.90
13616;DHT22;6879;51.368;6.782;2023-03-23T07:00:56;13.40;99.90
13616;DHT22;6879;51.368;6.782;2023-03-23T07:03:36;13.40;99.90
13616;DHT22;6879;51.368;6.782;2023-03-23T07:06:04;13.40;99.90
13616;DHT22;6879;51.368;6.782;2023-03-23T07:08:36;13.40;99.90
13616;DHT22;6879;51.368;6.782;2023-03-23T07:11:06;13.40;99.90
13616;DHT22;6879;51.368;6.782;2023-03-23T07:13:36;13.40;99.90
13616;DHT22;6879;51.368;6.782;2023-03-23T07:16:05;13.40;99.90
13616;DHT22;6879;51.368;6.782;2023-03-23T07:18:33;13.40;99.90
13616;DHT22;6879;51.368;6.782;2023-03-23T07:21:04;13.50;99.90
13616;DHT22;6879;51.368;6.782;2023-03-23T07:23:31;13.50;99.90
13616;DHT22;6879;51.368;6.782;2023-03-23T07:26:03;13.50;99.90
13616;DHT22;6879;51.368;6.782;2023-03-23T07:28:40;13.50;99.90
13616;DHT22;6879;51.368;6.782;2023-03-23T07:31:20;13.60;99.90
13616;DHT22;6879;51.368;6.782;2023-03-23T07:33:49;13.60;99.90
13616;DHT22;6879;51.368;6.782;2023-03-23T07:36:17;13.50;99.90
13616;DHT22;6879;51.368;6.782;2023-03-23T07:38:44;13.50;99.90
13616;DHT22;6879;51.368;6.782;2023-03-23T07:41:12;13.60;99.90
13616;DHT22;6879;51.368;6.782;2023-03-23T07:43:43;13.60;99.90
13616;DHT22;6879;51.368;6.782;2023-03-23T07:46:23;13.60;99.90
13616;DHT22;6879;51.368;6.782;2023-03-23T07:48:59;13.60;99.90
13616;DHT22;6879;51.368;6.782;2023-03-23T07:51:35;13.60;99.90
13616;DHT22;6879;51.368;6.782;2023-03-23T07:54:07;13.60;99.90
13616;DHT22;6879;51.368;6.782;2023-03-23T07:57:09;13.60;99.90
13616;DHT22;6879;51.368;6.782;2023-03-23T07:59:43;13.60;99.90
13616;DHT22;6879;51.368;6.782;2023-03-23T08:02:19;13.60;99.80
13616;DHT22;6879;51.368;6.782;2023-03-23T08:05:13;13.70;99.70
13616;DHT22;6879;51.368;6.782;2023-03-23T08:08:08;13.70;99.60
13616;DHT22;6879;51.368;6.782;2023-03-23T08:10:59;13.70;99.60
13616;DHT22;6879;51.368;6.782;2023-03-23T08:13:44;13.70;99.60
13616;DHT22;6879;51.368;6.782;2023-03-23T08:16:36;13.80;99.20
13616;DHT22;6879;51.368;6.782;2023-03-23T08:19:26;13.90;98.90
13616;DHT22;6879;51.368;6.782;2023-03-23T08:22:26;14.10;98.50
13616;DHT22;6879;51.368;6.782;2023-03-23T08:25:14;14.20;98.00
13616;DHT22;6879;51.368;6.782;2023-03-23T08:28:01;14.20;97.90
13616;DHT22;6879;51.368;6.782;2023-03-23T08:31:06;14.30;97.80
13616;DHT22;6879;51.368;6.782;2023-03-23T08:34:21;14.30;97.30
13616;DHT22;6879;51.368;6.782;2023-03-23T08:37:08;14.40;97.30
13616;DHT22;6879;51.368;6.782;2023-03-23T08:39:55;14.50;96.70
13616;DHT22;6879;51.368;6.782;2023-03-23T08:42:24;14.50;96.80
13616;DHT22;6879;51.368;6.782;2023-03-23T08:45:23;14.60;96.40
13616;DHT22;6879;51.368;6.782;2023-03-23T08:48:15;14.60;96.60
13616;DHT22;6879;51.368;6.782;2023-03-23T08:51:05;14.60;96.20
13616;DHT22;6879;51.368;6.782;2023-03-23T08:53:51;14.60;96.10
13616;DHT22;6879;51.368;6.782;2023-03-23T08:56:43;14.60;96.20
13616;DHT22;6879;51.368;6.782;2023-03-23T08:59:24;14.50;96.10
13616;DHT22;6879;51.368;6.782;2023-03-23T09:02:03;14.40;96.50
13616;DHT22;6879;51.368;6.782;2023-03-23T09:04:49;14.50;96.50
13616;DHT22;6879;51.368;6.782;2023-03-23T09:07:54;14.40;96.60
13616;DHT22;6879;51.368;6.782;2023-03-23T09:10:57;14.30;96.70
13616;DHT22;6879;51.368;6.782;2023-03-23T09:13:52;14.20;97.00
13616;DHT22;6879;51.368;6.782;2023-03-23T09:16:53;14.20;97.30
13616;DHT22;6879;51.368;6.782;2023-03-23T09:19:21;14.10;97.30
13616;DHT22;6879;51.368;6.782;2023-03-23T09:22:01;14.10;97.20
13616;DHT22;6879;51.368;6.782;2023-03-23T09:24:44;14.10;97.20
13616;DHT22;6879;51.368;6.782;2023-03-23T09:27:22;14.20;97.30
13616;DHT22;6879;51.368;6.782;2023-03-23T09:30:15;14.10;97.20
13616;DHT22;6879;51.368;6.782;2023-03-23T09:33:40;14.10;97.20
13616;DHT22;6879;51.368;6.782;2023-03-23T09:45:04;13.90;99.90
13616;DHT22;6879;51.368;6.782;2023-03-23T09:48:29;13.80;99.90
13616;DHT22;6879;51.368;6.782;2023-03-23T09:51:04;12.40;99.90
13616;DHT22;6879;51.368;6.782;2023-03-23T09:53:39;11.80;99.90
13616;DHT22;6879;51.368;6.782;2023-03-23T09:56:20;11.40;99.90
13616;DHT22;6879;51.368;6.782;2023-03-23T09:59:21;11.20;99.90
13616;DHT22;6879;51.368;6.782;2023-03-23T10:02:09;11.20;99.90
13616;DHT22;6879;51.368;6.782;2023-03-23T10:04:47;11.10;99.90
13616;DHT22;6879;51.368;6.782;2023-03-23T10:07:27;10.90;99.90
13616;DHT22;6879;51.368;6.782;2023-03-23T10:16:37;10.80;99.90
13616;DHT22;6879;51.368;6.782;2023-03-23T10:19:26;10.70;99.90
13616;DHT22;6879;51.368;6.782;2023-03-23T10:22:03;10.60;99.90
13616;DHT22;6879;51.368;6.782;2023-03-23T10:32:58;10.50;99.90
13616;DHT22;6879;51.368;6.782;2023-03-23T10:35:38;10.50;99.90
13616;DHT22;6879;51.368;6.782;2023-03-23T10:38:23;10.40;99.90
13616;DHT22;6879;51.368;6.782;2023-03-23T10:41:06;10.30;99.90
13616;DHT22;6879;51.368;6.782;2023-03-23T10:44:24;10.40;99.90
13616;DHT22;6879;51.368;6.782;2023-03-23T10:46:58;10.40;99.90
13616;DHT22;6879;51.368;6.782;2023-03-23T10:53:58;10.30;99.90
13616;DHT22;6879;51.368;6.782;2023-03-23T10:56:41;10.20;99.90
13616;DHT22;6879;51.368;6.782;2023-03-23T10:59:57;10.20;99.90
13616;DHT22;6879;51.368;6.782;2023-03-23T11:02:56;10.30;99.90
13616;DHT22;6879;51.368;6.782;2023-03-23T11:05:41;10.40;99.90
13616;DHT22;6879;51.368;6.782;2023-03-23T11:08:15;10.30;99.90
13616;DHT22;6879;51.368;6.782;2023-03-23T11:11:14;10.30;99.90
13616;DHT22;6879;51.368;6.782;2023-03-23T11:13:57;10.30;99.90
13616;DHT22;6879;51.368;6.782;2023-03-23T11:16:28;10.40;99.90
13616;DHT22;6879;51.368;6.782;2023-03-23T11:19:46;10.30;99.90
13616;DHT22;6879;51.368;6.782;2023-03-23T11:22:42;10.40;99.90
13616;DHT22;6879;51.368;6.782;2023-03-23T11:28:41;10.40;99.90
13616;DHT22;6879;51.368;6.782;2023-03-23T11:31:12;10.50;99.90
13616;DHT22;6879;51.368;6.782;2023-03-23T11:33:50;10.60;99.90
13616;DHT22;6879;51.368;6.782;2023-03-23T11:37:08;10.90;99.90
13616;DHT22;6879;51.368;6.782;2023-03-23T11:40:16;11.10;99.90
13616;DHT22;6879;51.368;6.782;2023-03-23T11:44:08;11.00;99.90
13616;DHT22;6879;51.368;6.782;2023-03-23T11:47:23;11.10;99.90
13616;DHT22;6879;51.368;6.782;2023-03-23T11:55:24;11.30;99.90
13616;DHT22;6879;51.368;6.782;2023-03-23T12:02:04;10.90;99.90
13616;DHT22;6879;51.368;6.782;2023-03-23T12:08:56;11.00;99.90
13616;DHT22;6879;51.368;6.782;2023-03-23T12:12:54;11.20;99.90
13616;DHT22;6879;51.368;6.782;2023-03-23T12:16:40;11.30;99.90
13616;DHT22;6879;51.368;6.782;2023-03-23T12:20:18;11.40;99.90
13616;DHT22;6879;51.368;6.782;2023-03-23T12:23:32;11.40;99.90
13616;DHT22;6879;51.368;6.782;2023-03-23T12:26:39;11.40;99.90
13616;DHT22;6879;51.368;6.782;2023-03-23T12:29:45;11.50;99.90
13616;DHT22;6879;51.368;6.782;2023-03-23T12:33:09;11.70;99.90
13616;DHT22;6879;51.368;6.782;2023-03-23T12:35:59;11.90;99.90
13616;DHT22;6879;51.368;6.782;2023-03-23T13:06:30;12.00;99.90
13616;DHT22;6879;51.368;6.782;2023-03-23T13:10:33;12.10;99.90
13616;DHT22;6879;51.368;6.782;2023-03-23T13:16:35;13.10;99.90
13616;DHT22;6879;51.368;6.782;2023-03-23T13:19:25;12.80;99.90
13616;DHT22;6879;51.368;6.782;2023-03-23T13:22:31;12.60;99.90
13616;DHT22;6879;51.368;6.782;2023-03-23T13:25:37;12.60;99.90
13616;DHT22;6879;51.368;6.782;2023-03-23T13:28:19;12.60;99.90
13616;DHT22;6879;51.368;6.782;2023-03-23T13:31:04;12.70;99.90
13616;DHT22;6879;51.368;6.782;2023-03-23T13:58:22;13.80;99.90
13616;DHT22;6879;51.368;6.782;2023-03-23T14:01:43;13.90;99.90
13616;DHT22;6879;51.368;6.782;2023-03-23T14:10:52;13.80;99.90
13616;DHT22;6879;51.368;6.782;2023-03-23T14:21:32;14.80;99.90
13616;DHT22;6879;51.368;6.782;2023-03-23T14:24:51;17.20;99.90
13616;DHT22;6879;51.368;6.782;2023-03-23T14:28:19;18.80;99.70
13616;DHT22;6879;51.368;6.782;2023-03-23T14:49:39;16.60;99.90
13616;DHT22;6879;51.368;6.782;2023-03-23T14:52:14;15.80;99.90
13616;DHT22;6879;51.368;6.782;2023-03-23T14:57:54;15.40;99.90
13616;DHT22;6879;51.368;6.782;2023-03-23T15:01:10;15.40;99.90
13616;DHT22;6879;51.368;6.782;2023-03-23T15:11:29;17.90;96.30
13616;DHT22;6879;51.368;6.782;2023-03-23T15:57:40;20.30;86.40
13616;DHT22;6879;51.368;6.782;2023-03-23T16:00:09;20.50;85.40
13616;DHT22;6879;51.368;6.782;2023-03-23T16:02:38;19.90;86.70
13616;DHT22;6879;51.368;6.782;2023-03-23T16:05:12;19.70;86.80
13616;DHT22;6879;51.368;6.782;2023-03-23T16:07:40;19.50;87.70
13616;DHT22;6879;51.368;6.782;2023-03-23T16:10:15;19.80;87.60
13616;DHT22;6879;51.368;6.782;2023-03-23T16:12:46;19.70;87.60
13616;DHT22;6879;51.368;6.782;2023-03-23T16:15:15;19.60;87.20
13616;DHT22;6879;51.368;6.782;2023-03-23T16:17:44;19.60;87.80
13616;DHT22;6879;51.368;6.782;2023-03-23T16:20:14;19.40;87.60
13616;DHT22;6879;51.368;6.782;2023-03-23T16:22:44;18.90;88.90
13616;DHT22;6879;51.368;6.782;2023-03-23T16:25:13;18.50;89.90
13616;DHT22;6879;51.368;6.782;2023-03-23T16:27:46;18.50;90.30
13616;DHT22;6879;51.368;6.782;2023-03-23T16:30:20;18.80;89.90
13616;DHT22;6879;51.368;6.782;2023-03-23T16:32:49;18.70;89.90
13616;DHT22;6879;51.368;6.782;2023-03-23T16:35:21;18.20;90.60
13616;DHT22;6879;51.368;6.782;2023-03-23T16:37:51;17.60;92.20
13616;DHT22;6879;51.368;6.782;2023-03-23T16:40:35;17.20;93.50
13616;DHT22;6879;51.368;6.782;2023-03-23T16:43:05;17.30;93.70
13616;DHT22;6879;51.368;6.782;2023-03-23T16:45:35;17.30;93.90
13616;DHT22;6879;51.368;6.782;2023-03-23T16:48:04;17.20;94.00
13616;DHT22;6879;51.368;6.782;2023-03-23T16:50:35;16.90;94.60
13616;DHT22;6879;51.368;6.782;2023-03-23T16:53:04;16.60;95.60
13616;DHT22;6879;51.368;6.782;2023-03-23T16:55:34;16.30;96.20
13616;DHT22;6879;51.368;6.782;2023-03-23T16:58:05;16.20;96.80
13616;DHT22;6879;51.368;6.782;2023-03-23T17:00:44;15.90;97.20
13616;DHT22;6879;51.368;6.782;2023-03-23T17:03:14;15.80;97.60
13616;DHT22;6879;51.368;6.782;2023-03-23T17:05:44;15.60;98.00
13616;DHT22;6879;51.368;6.782;2023-03-23T17:08:13;15.50;98.00
13616;DHT22;6879;51.368;6.782;2023-03-23T17:10:41;15.50;97.80
13616;DHT22;6879;51.368;6.782;2023-03-23T17:13:12;15.50;97.40
13616;DHT22;6879;51.368;6.782;2023-03-23T17:15:42;15.40;97.60
13616;DHT22;6879;51.368;6.782;2023-03-23T17:18:13;15.40;97.30
13616;DHT22;6879;51.368;6.782;2023-03-23T17:20:42;15.40;97.40
13616;DHT22;6879;51.368;6.782;2023-03-23T17:23:11;15.30;97.10
13616;DHT22;6879;51.368;6.782;2023-03-23T17:25:40;15.30;96.90
13616;DHT22;6879;51.368;6.782;2023-03-23T17:28:09;15.30;97.00
13616;DHT22;6879;51.368;6.782;2023-03-23T17:30:41;15.30;96.90
13616;DHT22;6879;51.368;6.782;2023-03-23T17:33:10;15.20;96.10
13616;DHT22;6879;51.368;6.782;2023-03-23T17:35:41;15.20;95.80
13616;DHT22;6879;51.368;6.782;2023-03-23T17:38:10;15.20;95.60
13616;DHT22;6879;51.368;6.782;2023-03-23T17:40:39;15.20;95.60
13616;DHT22;6879;51.368;6.782;2023-03-23T17:43:07;15.20;95.50
13616;DHT22;6879;51.368;6.782;2023-03-23T17:45:36;15.10;95.30
13616;DHT22;6879;51.368;6.782;2023-03-23T17:48:06;15.10;95.50
13616;DHT22;6879;51.368;6.782;2023-03-23T17:50:35;15.00;95.30
13616;DHT22;6879;51.368;6.782;2023-03-23T17:53:04;14.80;95.60
13616;DHT22;6879;51.368;6.782;2023-03-23T17:55:32;14.80;95.60
13616;DHT22;6879;51.368;6.782;2023-03-23T17:58:01;14.70;95.70
13616;DHT22;6879;51.368;6.782;2023-03-23T18:00:29;14.60;96.00
13616;DHT22;6879;51.368;6.782;2023-03-23T18:02:58;14.60;95.50
13616;DHT22;6879;51.368;6.782;2023-03-23T18:05:29;14.60;95.80
13616;DHT22;6879;51.368;6.782;2023-03-23T18:07:58;14.60;95.60
13616;DHT22;6879;51.368;6.782;2023-03-23T18:10:27;14.50;95.80
13616;DHT22;6879;51.368;6.782;2023-03-23T18:12:55;14.50;95.90
13616;DHT22;6879;51.368;6.782;2023-03-23T18:15:24;14.50;95.90
13616;DHT22;6879;51.368;6.782;2023-03-23T18:17:56;14.50;95.90
13616;DHT22;6879;51.368;6.782;2023-03-23T18:20:24;14.40;96.00
13616;DHT22;6879;51.368;6.782;2023-03-23T18:22:55;14.40;96.00
13616;DHT22;6879;51.368;6.782;2023-03-23T18:25:24;14.40;96.10
13616;DHT22;6879;51.368;6.782;2023-03-23T18:27:53;14.30;96.20
13616;DHT22;6879;51.368;6.782;2023-03-23T18:30:31;14.30;96.20
13616;DHT22;6879;51.368;6.782;2023-03-23T18:33:00;14.20;96.20
13616;DHT22;6879;51.368;6.782;2023-03-23T18:35:30;14.20;96.40
13616;DHT22;6879;51.368;6.782;2023-03-23T18:38:00;14.30;96.00
13616;DHT22;6879;51.368;6.782;2023-03-23T18:40:29;14.30;96.00
13616;DHT22;6879;51.368;6.782;2023-03-23T18:42:58;14.40;95.80
13616;DHT22;6879;51.368;6.782;2023-03-23T18:45:27;14.40;95.60
13616;DHT22;6879;51.368;6.782;2023-03-23T18:47:55;14.40;95.60
13616;DHT22;6879;51.368;6.782;2023-03-23T18:50:24;14.40;95.70
13616;DHT22;6879;51.368;6.782;2023-03-23T18:52:53;14.40;95.60
13616;DHT22;6879;51.368;6.782;2023-03-23T18:55:23;14.40;95.60
13616;DHT22;6879;51.368;6.782;2023-03-23T18:57:52;14.30;95.90
13616;DHT22;6879;51.368;6.782;2023-03-23T19:00:21;14.20;95.90
13616;DHT22;6879;51.368;6.782;2023-03-23T19:02:50;14.20;96.20
13616;DHT22;6879;51.368;6.782;2023-03-23T19:05:19;14.10;96.50
13616;DHT22;6879;51.368;6.782;2023-03-23T19:07:48;14.00;96.60
13616;DHT22;6879;51.368;6.782;2023-03-23T19:10:19;14.00;96.60
13616;DHT22;6879;51.368;6.782;2023-03-23T19:12:49;13.90;96.70
13616;DHT22;6879;51.368;6.782;2023-03-23T19:15:18;13.80;96.90
13616;DHT22;6879;51.368;6.782;2023-03-23T19:17:47;13.80;97.10
13616;DHT22;6879;51.368;6.782;2023-03-23T19:20:22;13.70;97.20
13616;DHT22;6879;51.368;6.782;2023-03-23T19:23:11;13.70;97.30
13616;DHT22;6879;51.368;6.782;2023-03-23T19:25:40;13.60;97.50
13616;DHT22;6879;51.368;6.782;2023-03-23T19:28:10;13.60;97.60
13616;DHT22;6879;51.368;6.782;2023-03-23T19:30:59;13.70;97.60
13616;DHT22;6879;51.368;6.782;2023-03-23T19:33:28;13.70;97.50
13616;DHT22;6879;51.368;6.782;2023-03-23T19:35:57;13.70;97.50
13616;DHT22;6879;51.368;6.782;2023-03-23T19:38:39;13.70;97.50
13616;DHT22;6879;51.368;6.782;2023-03-23T19:41:08;13.70;97.80
13616;DHT22;6879;51.368;6.782;2023-03-23T19:43:39;13.70;97.90
13616;DHT22;6879;51.368;6.782;2023-03-23T19:46:09;13.60;98.10
13616;DHT22;6879;51.368;6.782;2023-03-23T19:48:38;13.60;98.10
13616;DHT22;6879;51.368;6.782;2023-03-23T19:51:09;13.60;98.20
13616;DHT22;6879;51.368;6.782;2023-03-23T19:53:38;13.60;98.10
13616;DHT22;6879;51.368;6.782;2023-03-23T19:56:11;13.60;98.20
13616;DHT22;6879;51.368;6.782;2023-03-23T19:58:42;13.60;98.10
13616;DHT22;6879;51.368;6.782;2023-03-23T20:01:10;13.60;97.90
13616;DHT22;6879;51.368;6.782;2023-03-23T20:03:40;13.60;98.00
13616;DHT22;6879;51.368;6.782;2023-03-23T20:06:11;13.70;98.00
13616;DHT22;6879;51.368;6.782;2023-03-23T20:08:42;13.70;97.70
13616;DHT22;6879;51.368;6.782;2023-03-23T20:11:13;13.70;97.80